DL2511 KSAN-KLAX
Flight info
| Callsign | DL2511 |
|---|---|
| Flight time | 0h 27m |
| Altitude | 10000 |
| Route | CWARD2 SLI |
| Aircraft | B38M/M-SDE1FGHILORVWXY/HB1 |
Departure
| Time | 2026-05-08 05:34 |
|---|---|
| Airport | San Diego International Airport (KSAN) |
Arrival
| Time | 2026-05-08 06:01 |
|---|---|
| Airport | Los Angeles International Airport (KLAX) |
| Time | Latitude | Longitude | Altitude | Speed | Heading |
|---|---|---|---|---|---|
| 2026-05-08 05:11 | 32.73242 | -117.19299 | 29 ft | 0 kts | 195° |
| 2026-05-08 05:24 | 32.73246 | -117.19298 | 31 ft | 3 kts | 195° |
| 2026-05-08 05:25 | 32.73264 | -117.19293 | 27 ft | 3 kts | 195° |
| 2026-05-08 05:25 | 32.73282 | -117.19287 | 27 ft | 3 kts | 195° |
| 2026-05-08 05:25 | 32.73300 | -117.19281 | 26 ft | 3 kts | 195° |
| 2026-05-08 05:25 | 32.73306 | -117.19280 | 27 ft | 0 kts | 226° |
| 2026-05-08 05:26 | 32.73307 | -117.19280 | 27 ft | 0 kts | 239° |
| 2026-05-08 05:27 | 32.73305 | -117.19281 | 27 ft | 0 kts | 225° |
| 2026-05-08 05:27 | 32.73300 | -117.19278 | 30 ft | 1 kts | 169° |
| 2026-05-08 05:27 | 32.73300 | -117.19265 | 29 ft | 5 kts | 88° |
| 2026-05-08 05:27 | 32.73301 | -117.19187 | 29 ft | 11 kts | 94° |
| 2026-05-08 05:28 | 32.73286 | -117.19101 | 27 ft | 10 kts | 105° |
| 2026-05-08 05:28 | 32.73266 | -117.19016 | 27 ft | 12 kts | 105° |
| 2026-05-08 05:28 | 32.73240 | -117.18908 | 28 ft | 15 kts | 106° |
| 2026-05-08 05:28 | 32.73208 | -117.18779 | 33 ft | 17 kts | 105° |
| 2026-05-08 05:29 | 32.73173 | -117.18631 | 34 ft | 20 kts | 106° |
| 2026-05-08 05:29 | 32.73129 | -117.18454 | 34 ft | 23 kts | 106° |
| 2026-05-08 05:29 | 32.73085 | -117.18272 | 38 ft | 23 kts | 106° |
| 2026-05-08 05:29 | 32.73040 | -117.18084 | 34 ft | 24 kts | 106° |
| 2026-05-08 05:30 | 32.72995 | -117.17902 | 31 ft | 21 kts | 106° |
| 2026-05-08 05:30 | 32.72957 | -117.17756 | 31 ft | 15 kts | 107° |
| 2026-05-08 05:30 | 32.72953 | -117.17696 | 29 ft | 0 kts | 79° |
| 2026-05-08 05:32 | 32.72956 | -117.17682 | 31 ft | 4 kts | 76° |
| 2026-05-08 05:32 | 32.72974 | -117.17635 | 34 ft | 8 kts | 53° |
| 2026-05-08 05:32 | 32.73028 | -117.17638 | 35 ft | 11 kts | 305° |
| 2026-05-08 05:33 | 32.73058 | -117.17747 | 31 ft | 17 kts | 284° |
| 2026-05-08 05:33 | 32.73108 | -117.17961 | 30 ft | 55 kts | 287° |
| 2026-05-08 05:33 | 32.73286 | -117.18687 | 33 ft | 125 kts | 286° |
| 2026-05-08 05:33 | 32.73571 | -117.19884 | 128 ft | 169 kts | 287° |
| 2026-05-08 05:34 | 32.73980 | -117.21268 | 723 ft | 177 kts | 294° |
| 2026-05-08 05:34 | 32.74597 | -117.22481 | 1641 ft | 168 kts | 300° |
| 2026-05-08 05:34 | 32.75163 | -117.23580 | 2563 ft | 141 kts | 302° |
| 2026-05-08 05:34 | 32.75652 | -117.24421 | 3370 ft | 106 kts | 307° |
| 2026-05-08 05:35 | 32.76067 | -117.25118 | 3659 ft | 109 kts | 307° |
| 2026-05-08 05:35 | 32.76535 | -117.25916 | 3897 ft | 127 kts | 306° |
| 2026-05-08 05:35 | 32.77089 | -117.26869 | 3979 ft | 158 kts | 305° |
| 2026-05-08 05:35 | 32.77750 | -117.28017 | 4192 ft | 174 kts | 305° |
| 2026-05-08 05:36 | 32.78448 | -117.29234 | 4498 ft | 182 kts | 305° |
| 2026-05-08 05:36 | 32.79162 | -117.30480 | 4785 ft | 188 kts | 305° |
| 2026-05-08 05:36 | 32.79967 | -117.31852 | 5018 ft | 218 kts | 309° |
| 2026-05-08 05:36 | 32.81003 | -117.33406 | 5279 ft | 261 kts | 307° |
| 2026-05-08 05:37 | 32.82130 | -117.35192 | 5536 ft | 274 kts | 307° |
| 2026-05-08 05:37 | 32.83241 | -117.36938 | 5777 ft | 259 kts | 308° |
| 2026-05-08 05:37 | 32.84351 | -117.38651 | 6015 ft | 263 kts | 308° |
| 2026-05-08 05:37 | 32.85460 | -117.40364 | 6258 ft | 262 kts | 308° |
| 2026-05-08 05:38 | 32.86571 | -117.42090 | 6499 ft | 263 kts | 308° |
| 2026-05-08 05:38 | 32.87684 | -117.43821 | 6728 ft | 265 kts | 308° |
| 2026-05-08 05:38 | 32.88806 | -117.45563 | 6957 ft | 266 kts | 308° |
| 2026-05-08 05:38 | 32.89937 | -117.47321 | 7190 ft | 268 kts | 308° |
| 2026-05-08 05:39 | 32.91076 | -117.49091 | 7423 ft | 271 kts | 308° |
| 2026-05-08 05:39 | 32.92223 | -117.50876 | 7655 ft | 273 kts | 308° |
| 2026-05-08 05:39 | 32.93381 | -117.52680 | 7893 ft | 275 kts | 308° |
| 2026-05-08 05:39 | 32.94546 | -117.54493 | 8146 ft | 277 kts | 309° |
| 2026-05-08 05:40 | 32.95717 | -117.56318 | 8361 ft | 278 kts | 309° |
| 2026-05-08 05:40 | 32.96897 | -117.58157 | 8621 ft | 280 kts | 309° |
| 2026-05-08 05:40 | 32.98083 | -117.60007 | 8866 ft | 282 kts | 309° |
| 2026-05-08 05:40 | 32.99276 | -117.61870 | 9121 ft | 284 kts | 309° |
| 2026-05-08 05:41 | 33.00479 | -117.63747 | 9372 ft | 286 kts | 309° |
| 2026-05-08 05:41 | 33.01688 | -117.65636 | 9626 ft | 287 kts | 309° |
| 2026-05-08 05:41 | 33.02903 | -117.67535 | 9892 ft | 289 kts | 309° |
| 2026-05-08 05:41 | 33.04128 | -117.69450 | 10062 ft | 293 kts | 309° |
| 2026-05-08 05:42 | 33.05359 | -117.71377 | 10065 ft | 290 kts | 309° |
| 2026-05-08 05:42 | 33.06609 | -117.73273 | 10062 ft | 291 kts | 313° |
| 2026-05-08 05:42 | 33.08066 | -117.74934 | 10061 ft | 289 kts | 322° |
| 2026-05-08 05:42 | 33.09664 | -117.76392 | 10061 ft | 289 kts | 325° |
| 2026-05-08 05:43 | 33.11256 | -117.77855 | 10062 ft | 290 kts | 322° |
| 2026-05-08 05:43 | 33.12784 | -117.79423 | 10062 ft | 290 kts | 320° |
| 2026-05-08 05:43 | 33.14296 | -117.81015 | 10062 ft | 290 kts | 320° |
| 2026-05-08 05:43 | 33.15829 | -117.82580 | 10061 ft | 290 kts | 321° |
| 2026-05-08 05:44 | 33.17368 | -117.84133 | 10056 ft | 290 kts | 321° |
| 2026-05-08 05:44 | 33.18909 | -117.85679 | 10055 ft | 289 kts | 324° |
| 2026-05-08 05:44 | 33.20566 | -117.86969 | 10056 ft | 288 kts | 333° |
| 2026-05-08 05:44 | 33.22432 | -117.87916 | 10063 ft | 287 kts | 343° |
| 2026-05-08 05:45 | 33.24271 | -117.88764 | 10067 ft | 288 kts | 335° |
| 2026-05-08 05:45 | 33.25993 | -117.89997 | 10068 ft | 289 kts | 324° |
| 2026-05-08 05:45 | 33.27516 | -117.91576 | 10071 ft | 291 kts | 315° |
| 2026-05-08 05:45 | 33.28825 | -117.93416 | 10071 ft | 291 kts | 313° |
| 2026-05-08 05:46 | 33.30278 | -117.95088 | 10070 ft | 290 kts | 322° |
| 2026-05-08 05:46 | 33.32038 | -117.96186 | 10082 ft | 288 kts | 351° |
| 2026-05-08 05:46 | 33.33998 | -117.95995 | 10079 ft | 286 kts | 23° |
| 2026-05-08 05:46 | 33.35606 | -117.94625 | 10079 ft | 286 kts | 44° |
| 2026-05-08 05:47 | 33.36985 | -117.92913 | 10075 ft | 286 kts | 44° |
| 2026-05-08 05:47 | 33.38681 | -117.91730 | 10087 ft | 287 kts | 12° |
| 2026-05-08 05:47 | 33.40658 | -117.91768 | 10085 ft | 287 kts | 351° |
| 2026-05-08 05:47 | 33.42600 | -117.92332 | 10075 ft | 288 kts | 343° |
| 2026-05-08 05:48 | 33.44502 | -117.93112 | 10063 ft | 289 kts | 341° |
| 2026-05-08 05:48 | 33.46410 | -117.93867 | 10010 ft | 291 kts | 343° |
| 2026-05-08 05:48 | 33.48340 | -117.94550 | 9765 ft | 287 kts | 344° |
| 2026-05-08 05:48 | 33.50247 | -117.95220 | 9511 ft | 285 kts | 343° |
| 2026-05-08 05:49 | 33.52140 | -117.95909 | 9256 ft | 283 kts | 343° |
| 2026-05-08 05:49 | 33.54018 | -117.96601 | 9007 ft | 282 kts | 343° |
| 2026-05-08 05:49 | 33.55888 | -117.97282 | 8767 ft | 280 kts | 343° |
| 2026-05-08 05:49 | 33.57747 | -117.97957 | 8517 ft | 278 kts | 342° |
| 2026-05-08 05:50 | 33.59594 | -117.98629 | 8271 ft | 277 kts | 342° |
| 2026-05-08 05:50 | 33.61430 | -117.99299 | 8022 ft | 275 kts | 342° |
| 2026-05-08 05:50 | 33.63251 | -117.99964 | 7790 ft | 273 kts | 342° |
| 2026-05-08 05:50 | 33.65068 | -118.00627 | 7552 ft | 272 kts | 342° |
| 2026-05-08 05:51 | 33.66877 | -118.01287 | 7311 ft | 271 kts | 342° |
| 2026-05-08 05:51 | 33.68673 | -118.01943 | 7099 ft | 269 kts | 341° |
| 2026-05-08 05:51 | 33.70440 | -118.02668 | 7085 ft | 271 kts | 339° |
| 2026-05-08 05:51 | 33.72213 | -118.03460 | 7084 ft | 271 kts | 339° |
| 2026-05-08 05:52 | 33.73985 | -118.04227 | 7081 ft | 268 kts | 340° |
| 2026-05-08 05:52 | 33.75705 | -118.04948 | 7046 ft | 255 kts | 340° |
| 2026-05-08 05:52 | 33.76794 | -118.05406 | 7040 ft | 246 kts | 339° |
| 2026-05-08 05:52 | 33.78365 | -118.06074 | 7037 ft | 234 kts | 339° |
| 2026-05-08 05:53 | 33.79861 | -118.06712 | 7033 ft | 222 kts | 339° |
| 2026-05-08 05:53 | 33.81638 | -118.07871 | 7058 ft | 222 kts | 340° |
| 2026-05-08 05:53 | 33.83133 | -118.08359 | 6980 ft | 224 kts | 346° |
| 2026-05-08 05:53 | 33.84673 | -118.08754 | 6699 ft | 228 kts | 347° |
| 2026-05-08 05:54 | 33.86233 | -118.09134 | 6422 ft | 230 kts | 347° |
| 2026-05-08 05:54 | 33.87274 | -118.09387 | 6228 ft | 231 kts | 347° |
| 2026-05-08 05:54 | 33.89354 | -118.09912 | 5913 ft | 219 kts | 346° |
| 2026-05-08 05:54 | 33.90329 | -118.10178 | 5739 ft | 206 kts | 345° |
| 2026-05-08 05:55 | 33.91675 | -118.10583 | 5448 ft | 194 kts | 344° |
| 2026-05-08 05:55 | 33.92917 | -118.11042 | 5154 ft | 185 kts | 340° |
| 2026-05-08 05:55 | 33.93985 | -118.11752 | 5058 ft | 167 kts | 324° |
| 2026-05-08 05:55 | 33.94814 | -118.12632 | 5052 ft | 157 kts | 314° |
| 2026-05-08 05:56 | 33.95541 | -118.13636 | 5047 ft | 158 kts | 309° |
| 2026-05-08 05:56 | 33.96018 | -118.14789 | 5041 ft | 157 kts | 279° |
| 2026-05-08 05:56 | 33.95945 | -118.16111 | 5055 ft | 161 kts | 266° |
| 2026-05-08 05:56 | 33.95771 | -118.17437 | 5060 ft | 159 kts | 265° |
| 2026-05-08 05:57 | 33.95587 | -118.18760 | 5059 ft | 161 kts | 265° |
| 2026-05-08 05:57 | 33.95422 | -118.20088 | 5062 ft | 160 kts | 269° |
| 2026-05-08 05:57 | 33.95334 | -118.21388 | 5061 ft | 159 kts | 270° |
| 2026-05-08 05:57 | 33.95152 | -118.22749 | 5088 ft | 168 kts | 264° |
| 2026-05-08 05:58 | 33.94941 | -118.24211 | 5084 ft | 180 kts | 264° |
| 2026-05-08 05:58 | 33.94751 | -118.25696 | 4991 ft | 182 kts | 269° |
| 2026-05-08 05:58 | 33.94614 | -118.27227 | 4406 ft | 187 kts | 268° |
| 2026-05-08 05:58 | 33.94520 | -118.28799 | 3570 ft | 188 kts | 270° |
| 2026-05-08 05:59 | 33.94486 | -118.30300 | 2931 ft | 169 kts | 269° |
| 2026-05-08 05:59 | 33.94400 | -118.31660 | 2242 ft | 158 kts | 264° |
| 2026-05-08 05:59 | 33.94272 | -118.32947 | 1640 ft | 152 kts | 260° |
| 2026-05-08 05:59 | 33.94119 | -118.34201 | 1021 ft | 152 kts | 260° |
| 2026-05-08 06:00 | 33.94012 | -118.35413 | 634 ft | 138 kts | 263° |
| 2026-05-08 06:00 | 33.93907 | -118.36502 | 372 ft | 126 kts | 262° |
| 2026-05-08 06:00 | 33.93812 | -118.37518 | 244 ft | 120 kts | 262° |
| 2026-05-08 06:00 | 33.93714 | -118.38485 | 146 ft | 114 kts | 259° |
| 2026-05-08 06:01 | 33.93629 | -118.39321 | 127 ft | 74 kts | 263° |
| 2026-05-08 06:01 | 33.93588 | -118.39729 | 127 ft | 36 kts | 263° |
| 2026-05-08 06:01 | 33.93563 | -118.39978 | 125 ft | 26 kts | 261° |
| 2026-05-08 06:01 | 33.93572 | -118.40179 | 124 ft | 22 kts | 282° |
| 2026-05-08 06:02 | 33.93606 | -118.40303 | 125 ft | 0 kts | 292° |
| 2026-05-08 06:04 | 33.93606 | -118.40304 | 125 ft | 0 kts | 291° |
| 2026-05-08 06:04 | 33.93612 | -118.40324 | 125 ft | 4 kts | 289° |
| 2026-05-08 06:04 | 33.93623 | -118.40386 | 125 ft | 9 kts | 277° |
| 2026-05-08 06:04 | 33.93623 | -118.40454 | 122 ft | 7 kts | 265° |
| 2026-05-08 06:05 | 33.93618 | -118.40509 | 127 ft | 6 kts | 263° |
| 2026-05-08 06:05 | 33.93613 | -118.40558 | 126 ft | 5 kts | 263° |
| 2026-05-08 06:05 | 33.93609 | -118.40598 | 123 ft | 4 kts | 263° |
| 2026-05-08 06:05 | 33.93605 | -118.40632 | 123 ft | 4 kts | 262° |
| 2026-05-08 06:06 | 33.93602 | -118.40664 | 127 ft | 4 kts | 262° |
| 2026-05-08 06:06 | 33.93598 | -118.40698 | 125 ft | 4 kts | 262° |
| 2026-05-08 06:06 | 33.93594 | -118.40732 | 123 ft | 4 kts | 262° |
| 2026-05-08 06:06 | 33.93592 | -118.40768 | 125 ft | 4 kts | 270° |
| 2026-05-08 06:07 | 33.93595 | -118.40796 | 122 ft | 0 kts | 282° |
| 2026-05-08 06:07 | 33.93597 | -118.40805 | 122 ft | 2 kts | 283° |
| 2026-05-08 06:08 | 33.93609 | -118.40843 | 124 ft | 8 kts | 297° |
| 2026-05-08 06:08 | 33.93652 | -118.40890 | 122 ft | 9 kts | 345° |
| 2026-05-08 06:08 | 33.93724 | -118.40902 | 125 ft | 10 kts | 353° |
| 2026-05-08 06:08 | 33.93781 | -118.40888 | 124 ft | 9 kts | 42° |
| 2026-05-08 06:09 | 33.93797 | -118.40810 | 122 ft | 11 kts | 82° |
| 2026-05-08 06:09 | 33.93840 | -118.40743 | 124 ft | 9 kts | 18° |
| 2026-05-08 06:09 | 33.93879 | -118.40718 | 125 ft | 4 kts | 3° |
| 2026-05-08 06:09 | 33.93914 | -118.40740 | 123 ft | 6 kts | 340° |
| 2026-05-08 06:10 | 33.93940 | -118.40727 | 126 ft | 2 kts | 43° |
| 2026-05-08 06:10 | 33.93947 | -118.40719 | 124 ft | 0 kts | 42° |